createdAt,value
2019-04-22T06:45:29.092Z,9.55
2019-04-22T06:48:06.746Z,9.15
2019-04-22T06:50:43.505Z,9.20
2019-04-22T06:53:09.218Z,9.30
2019-04-22T06:55:41.374Z,9.70
2019-04-22T06:58:15.277Z,9.38
2019-04-22T07:03:39.909Z,8.40
2019-04-22T07:05:52.346Z,8.65
2019-04-22T07:08:59.515Z,8.93
2019-04-22T07:10:50.453Z,8.90
2019-04-22T07:13:29.094Z,8.50
2019-04-22T07:16:01.744Z,8.38
2019-04-22T07:18:35.989Z,8.25
2019-04-22T07:21:01.374Z,8.30
2019-04-22T07:26:05.994Z,8.00
2019-04-22T07:28:29.539Z,8.28
2019-04-22T07:31:10.372Z,7.45
2019-04-22T07:33:42.439Z,7.25
2019-04-22T07:38:42.787Z,8.60
2019-04-22T07:41:24.833Z,7.28
2019-04-22T07:44:07.389Z,7.35
2019-04-22T07:46:18.501Z,7.20
2019-04-22T07:51:32.716Z,7.17
2019-04-22T07:53:56.321Z,6.97
2019-04-22T07:56:30.538Z,7.45
2019-04-22T07:59:03.481Z,6.92
2019-04-22T08:01:32.335Z,7.15
2019-04-22T08:04:16.071Z,7.47
2019-04-22T08:06:49.403Z,7.03
2019-04-22T08:09:13.908Z,7.12
2019-04-22T08:14:18.927Z,6.53
2019-04-22T08:16:51.934Z,6.58
2019-04-22T08:19:22.280Z,6.33
2019-04-22T08:21:53.192Z,5.78
2019-04-22T08:24:25.293Z,6.55
2019-04-22T08:26:53.325Z,6.00
2019-04-22T08:31:59.214Z,5.92
2019-04-22T08:34:31.289Z,5.33
2019-04-22T08:39:35.898Z,5.58
2019-04-22T08:42:17.991Z,5.42
2019-04-22T08:45:04.907Z,5.40
2019-04-22T08:47:19.067Z,5.85
2019-04-22T08:50:03.143Z,5.12
2019-04-22T08:52:31.932Z,5.25
2019-04-22T08:55:07.744Z,5.30
2019-04-22T08:57:55.542Z,5.05
2019-04-22T09:00:06.850Z,5.25
2019-04-22T09:02:41.365Z,5.70
2019-04-22T09:05:12.267Z,5.67
2019-04-22T09:08:01.492Z,5.97
2019-04-22T09:10:10.369Z,6.17
2019-04-22T09:13:03.546Z,5.65
2019-04-22T09:15:24.722Z,5.80
2019-04-22T09:20:25.905Z,5.97
2019-04-22T09:23:03.717Z,6.15
2019-04-22T09:25:34.535Z,5.42
2019-04-22T09:28:07.334Z,5.55
2019-04-22T09:30:40.532Z,5.42
2019-04-22T09:33:14.065Z,5.30
2019-04-22T09:36:07.816Z,6.05
2019-04-22T09:41:05.415Z,5.42
2019-04-22T09:43:24.152Z,5.08
2019-04-22T09:45:53.189Z,5.45
2019-04-22T09:48:29.752Z,5.08
2019-04-22T09:51:03.754Z,4.83
2019-04-22T09:53:29.745Z,5.45
2019-04-22T09:56:03.845Z,5.17
2019-04-22T09:58:39.423Z,5.45
2019-04-22T10:01:32.382Z,5.50
2019-04-22T10:04:18.573Z,4.97
2019-04-22T10:06:40.691Z,5.17
2019-04-22T10:09:34.397Z,5.17
2019-04-22T10:11:50.815Z,4.80
2019-04-22T10:14:29.063Z,5.08
2019-04-22T10:16:53.896Z,4.40
2019-04-22T10:19:30.010Z,4.85
2019-04-22T10:22:10.455Z,5.03
2019-04-22T10:24:39.114Z,5.25
2019-04-22T10:27:12.934Z,4.97
2019-04-22T10:32:33.584Z,5.03
2019-04-22T10:35:04.376Z,5.08
2019-04-22T10:37:34.733Z,4.40
2019-04-22T10:40:13.854Z,5.08
2019-04-22T10:42:51.448Z,5.80
2019-04-22T10:45:26.416Z,5.40
2019-04-22T10:47:58.261Z,4.85
2019-04-22T10:50:43.018Z,5.72
2019-04-22T10:53:15.446Z,5.80
2019-04-22T10:55:51.013Z,5.67
2019-04-22T10:58:23.004Z,5.47
2019-04-22T11:00:58.155Z,6.03
2019-04-22T11:03:28.914Z,6.95
2019-04-22T11:05:59.545Z,6.20
2019-04-22T11:08:40.413Z,5.70
2019-04-22T11:11:19.057Z,5.70
2019-04-22T11:13:37.898Z,5.53
2019-04-22T11:16:09.514Z,6.30
2019-04-22T11:18:41.343Z,5.72
2019-04-22T11:21:12.047Z,5.35
2019-04-22T11:23:42.710Z,5.35
2019-04-22T11:26:13.162Z,4.78
2019-04-22T11:28:43.516Z,4.47
2019-04-22T11:31:14.685Z,4.33
2019-04-22T11:33:44.931Z,4.62
2019-04-22T11:36:15.808Z,4.55
2019-04-22T11:38:55.289Z,5.25
2019-04-22T11:41:19.480Z,4.53
2019-04-22T11:43:51.290Z,5.17
2019-04-22T11:46:23.093Z,5.15
2019-04-22T11:48:54.133Z,5.25
2019-04-22T11:51:24.686Z,4.75
2019-04-22T11:53:54.890Z,5.10
2019-04-22T11:56:25.435Z,4.72
2019-04-22T11:58:57.120Z,4.25
2019-04-22T12:01:28.738Z,4.80
2019-04-22T12:04:01.969Z,4.10
2019-04-22T12:06:33.782Z,3.65
2019-04-22T12:09:06.147Z,4.35
2019-04-22T12:11:36.666Z,4.60
2019-04-22T12:14:07.075Z,5.03
2019-04-22T12:16:37.292Z,4.62
2019-04-22T12:19:09.094Z,4.62
2019-04-22T12:21:39.507Z,4.75
2019-04-22T12:24:10.935Z,4.28
2019-04-22T12:26:42.387Z,4.60
2019-04-22T12:29:13.194Z,4.17
2019-04-22T12:31:43.590Z,3.75
2019-04-22T12:34:15.541Z,3.80
2019-04-22T14:17:52.706Z,6.78
2019-04-22T14:20:22.424Z,8.15
2019-04-22T14:22:52.789Z,7.55
2019-04-22T14:25:24.855Z,8.45
2019-04-22T14:28:01.918Z,8.05
2019-04-22T14:30:24.715Z,8.20
2019-04-22T14:32:58.028Z,7.75
2019-04-22T14:37:58.233Z,8.58
2019-04-22T14:40:30.357Z,8.15
2019-04-22T14:44:15.607Z,7.70
2019-04-22T14:46:04.389Z,7.92
2019-04-22T14:48:28.172Z,8.28
2019-04-22T14:50:51.837Z,7.35
2019-04-22T14:53:21.398Z,8.40
2019-04-22T14:55:38.220Z,8.18
2019-04-22T14:58:07.109Z,7.83
2019-04-22T15:00:35.946Z,8.53
2019-04-22T15:03:05.991Z,9.50
2019-04-22T15:08:07.017Z,8.65
2019-04-22T15:10:39.907Z,8.85
2019-04-22T15:13:09.408Z,9.58
2019-04-22T15:16:02.699Z,8.93
2019-04-22T15:21:16.957Z,8.48
2019-04-22T15:26:16.738Z,8.70
2019-04-22T15:28:47.405Z,8.43
2019-04-22T15:31:15.331Z,8.30
2019-04-22T15:33:48.783Z,8.75
2019-04-22T15:38:47.173Z,8.45
2019-04-22T15:41:18.762Z,7.72
2019-04-22T15:43:47.756Z,8.30
2019-04-22T15:46:18.402Z,8.38
2019-04-22T16:17:46.607Z,8.73
2019-04-22T16:20:17.426Z,8.45
2019-04-22T16:23:07.743Z,9.40
2019-04-22T16:28:39.723Z,9.60
2019-04-22T16:31:11.297Z,9.25
2019-04-22T16:33:45.398Z,9.05
2019-04-22T16:36:16.762Z,9.38
2019-04-22T16:38:47.188Z,8.43
2019-04-22T16:41:18.827Z,10.08
2019-04-22T16:43:50.807Z,9.10
2019-04-22T16:46:30.012Z,9.70
2019-04-22T16:49:03.333Z,10.03
2019-04-22T16:51:36.211Z,10.50
2019-04-22T16:54:08.361Z,9.90
2019-04-22T16:56:41.667Z,9.85
2019-04-22T16:59:14.891Z,10.03
2019-04-22T17:02:06.302Z,9.75
2019-04-22T17:04:57.758Z,10.40
2019-04-22T17:07:29.896Z,9.70
2019-04-22T17:10:01.905Z,10.40
2019-04-22T17:12:44.293Z,9.98
2019-04-22T17:15:12.178Z,9.43
2019-04-22T17:17:43.251Z,9.55
2019-04-22T17:20:15.472Z,11.70
2019-04-22T17:22:43.774Z,10.53
2019-04-22T17:25:16.294Z,10.53
2019-04-22T17:30:18.064Z,9.95
2019-04-22T17:32:48.470Z,9.95
2019-04-22T17:35:17.847Z,10.13
2019-04-22T17:38:09.225Z,10.58
2019-04-22T17:40:44.842Z,9.65
2019-04-22T17:43:36.571Z,10.32
2019-04-22T17:46:12.062Z,9.48
2019-04-22T17:51:26.926Z,11.18
2019-04-22T17:56:20.617Z,10.58
2019-04-22T18:01:25.243Z,11.03
2019-04-22T18:03:42.357Z,12.10
2019-04-22T18:06:39.221Z,9.98
2019-04-22T18:09:01.779Z,10.72
2019-04-22T18:11:45.971Z,9.85
2019-04-22T18:14:35.980Z,10.30
2019-04-22T18:19:49.170Z,10.90
2019-04-22T18:22:27.369Z,10.28
2019-04-22T18:25:07.707Z,11.68
2019-04-22T18:27:56.884Z,10.75
2019-04-22T18:30:18.031Z,11.10
2019-04-22T18:35:26.945Z,10.88
2019-04-22T18:38:04.680Z,11.60
2019-04-22T18:40:30.809Z,10.95
2019-04-22T18:43:06.287Z,12.73
2019-04-22T18:45:39.619Z,12.95
2019-04-22T18:47:58.633Z,11.60
2019-04-22T18:50:41.438Z,11.80
2019-04-22T18:53:23.364Z,12.68
2019-04-22T18:56:09.747Z,12.00
2019-04-22T18:58:33.769Z,12.00
2019-04-22T19:00:48.228Z,11.48
2019-04-22T19:06:20.063Z,11.18
2019-04-22T19:08:36.803Z,12.20
2019-04-22T19:11:12.655Z,10.75
2019-04-22T19:14:00.724Z,11.12
2019-04-22T19:18:50.220Z,11.03
2019-04-22T19:21:13.454Z,12.15
2019-04-22T19:23:45.207Z,12.00
2019-04-22T19:28:45.222Z,11.45
2019-04-22T19:31:19.407Z,11.60
2019-04-22T19:33:46.239Z,13.07
2019-04-22T19:36:22.710Z,10.88
2019-04-22T19:38:48.730Z,12.45
2019-04-22T19:41:25.660Z,11.88
2019-04-22T19:46:19.472Z,12.23
2019-04-22T19:49:00.307Z,12.45
2019-04-22T19:51:28.046Z,12.30
2019-04-22T19:53:56.070Z,12.23
2019-04-22T19:56:21.478Z,12.90
2019-04-22T19:58:53.517Z,12.37
2019-04-22T20:01:28.998Z,13.43
2019-04-22T20:06:38.131Z,12.93
2019-04-22T20:09:13.553Z,13.70
2019-04-22T20:11:41.762Z,13.55
2019-04-22T20:14:12.612Z,14.87
2019-04-22T20:16:37.405Z,13.78
2019-04-22T20:19:19.112Z,14.07
2019-04-22T20:21:46.571Z,13.60
2019-04-22T20:26:50.106Z,13.83
2019-04-22T20:29:21.045Z,13.85
2019-04-22T20:31:49.730Z,13.95
2019-04-22T20:34:28.302Z,12.60
2019-04-22T20:37:10.220Z,13.43
2019-04-22T20:39:34.229Z,12.98
2019-04-22T20:42:18.053Z,13.22
2019-04-22T20:44:41.048Z,13.08
2019-04-22T20:47:03.158Z,12.63
2019-04-22T20:49:38.266Z,13.05
2019-04-22T20:52:11.434Z,13.70
2019-04-22T20:54:37.344Z,12.98
2019-04-22T20:59:32.930Z,13.22
2019-04-22T21:02:05.161Z,13.13
2019-04-22T21:04:28.551Z,12.88
2019-04-22T21:07:05.171Z,12.80
2019-04-22T21:12:05.032Z,12.35
2019-04-22T21:14:41.455Z,12.82
2019-04-22T21:17:13.826Z,11.88
2019-04-22T21:19:54.685Z,11.88
2019-04-22T21:22:22.778Z,11.60
2019-04-22T21:24:47.479Z,12.13
2019-04-22T21:27:25.484Z,11.70
2019-04-22T21:29:48.334Z,11.20
2019-04-22T21:32:23.547Z,11.97
2019-04-22T21:35:03.889Z,11.18
2019-04-22T21:37:34.694Z,11.93
2019-04-22T21:39:51.841Z,11.45
2019-04-22T21:42:39.394Z,11.12
2019-04-22T21:44:58.643Z,12.10
2019-04-22T21:47:44.790Z,11.43
2019-04-22T21:50:28.311Z,10.70
2019-04-22T21:52:42.605Z,11.50
2019-04-22T21:55:16.476Z,10.78
2019-04-22T21:58:04.822Z,12.63
2019-04-22T22:00:43.191Z,11.78
2019-04-22T22:03:13.059Z,12.90
2019-04-22T22:05:34.187Z,12.13
2019-04-22T22:08:23.469Z,11.30
2019-04-22T22:10:56.950Z,11.57
2019-04-22T22:13:22.758Z,12.00
2019-04-22T22:15:51.080Z,12.45
2019-04-22T22:18:21.362Z,12.23
2019-04-22T22:21:19.139Z,11.80
2019-04-22T22:23:57.723Z,11.68
2019-04-22T22:25:59.603Z,13.22
2019-04-22T22:28:51.525Z,12.33
2019-04-22T22:31:15.496Z,14.23
2019-04-22T22:33:45.118Z,13.20
2019-04-22T22:36:05.085Z,15.45
2019-04-22T22:38:35.170Z,15.13
2019-04-22T22:43:29.694Z,15.60
2019-04-22T22:46:09.429Z,16.00
2019-04-22T22:51:42.508Z,13.50
2019-04-22T22:54:23.685Z,13.72
2019-04-22T22:59:29.997Z,14.07
2019-04-22T23:01:54.159Z,13.00
2019-04-22T23:04:34.233Z,13.00
2019-04-22T23:07:06.658Z,13.68
2019-04-22T23:09:30.913Z,12.58
2019-04-22T23:12:10.367Z,11.97
2019-04-22T23:14:37.036Z,12.90
2019-04-22T23:16:55.064Z,12.60
2019-04-22T23:19:19.938Z,11.95
2019-04-22T23:21:54.396Z,10.88
2019-04-22T23:24:54.357Z,11.63
2019-04-22T23:27:34.577Z,12.13
2019-04-22T23:30:12.042Z,11.05
2019-04-22T23:32:41.193Z,10.98
2019-04-22T23:35:33.840Z,11.68
2019-04-22T23:38:08.108Z,10.00
2019-04-22T23:40:38.519Z,10.60
2019-04-22T23:43:15.320Z,11.97
2019-04-22T23:45:46.603Z,10.55
2019-04-22T23:48:12.835Z,10.03
2019-04-22T23:50:50.848Z,10.03
2019-04-22T23:53:55.852Z,9.55
2019-04-22T23:56:04.320Z,9.75
2019-04-22T23:59:04.748Z,9.43
